Time;durP1;ratioP1;P1;durP2;ratioP2;P2;SDS_P1;SDS_P2;PMS_P1;PMS_P2;Temp;Humidity;BMP_temperature;BMP_pressure;BME280_temperature;BME280_humidity;BME280_pressure;Samples;Min_cycle;Max_cycle;Signal;HPM_P1;HPM_P2
2023/07/02 00:00:01;;;;;;;8.60;5.20;;;;;;;14.25;100.00;92596.97;2543401;23;19994;-85
2023/07/02 00:01:09;;;;;;;7.70;5.28;;;;;;;14.26;100.00;92592.31;2532382;23;20006;-83
2023/07/02 00:02:20;;;;;;;8.27;5.03;;;;;;;14.40;100.00;92601.69;2538270;23;20060;-87
2023/07/02 00:03:32;;;;;;;7.75;5.25;;;;;;;14.39;100.00;92594.84;2537825;23;20001;-82
2023/07/02 00:04:37;;;;;;;7.63;5.65;;;;;;;14.36;100.00;92599.19;2531918;23;20006;-85
2023/07/02 00:05:45;;;;;;;7.40;5.32;;;;;;;14.36;100.00;92602.63;2549306;23;20375;-83
2023/07/02 00:06:53;;;;;;;8.32;5.03;;;;;;;14.27;100.00;92599.22;2546995;23;20001;-85
2023/07/02 00:08:06;;;;;;;7.40;4.97;;;;;;;14.26;100.00;92603.09;2546525;23;20001;-85
2023/07/02 00:11:04;;;;;;;8.80;5.18;;;;;;;14.25;100.00;92605.03;2556370;23;20087;-84
2023/07/02 00:12:11;;;;;;;8.95;5.78;;;;;;;14.24;100.00;92598.16;2533398;23;20005;-84
2023/07/02 00:13:18;;;;;;;7.70;5.82;;;;;;;14.26;100.00;92598.44;2524715;23;20017;-83
2023/07/02 00:14:26;;;;;;;8.07;5.60;;;;;;;14.25;100.00;92602.34;2535038;23;20377;-83
2023/07/02 00:15:37;;;;;;;9.05;5.03;;;;;;;14.22;100.00;92607.88;2535697;23;19998;-86
2023/07/02 00:16:50;;;;;;;9.38;6.18;;;;;;;14.31;100.00;92605.16;2526235;23;20092;-83
2023/07/02 00:17:57;;;;;;;8.65;6.43;;;;;;;14.31;100.00;92608.63;2527621;23;20385;-83
2023/07/02 00:19:03;;;;;;;7.65;5.60;;;;;;;14.35;100.00;92616.50;2549250;23;20691;-85
2023/07/02 00:20:16;;;;;;;8.73;6.03;;;;;;;14.32;100.00;92609.34;2545787;23;20012;-84
2023/07/02 00:21:28;;;;;;;8.82;5.97;;;;;;;14.39;100.00;92616.34;2526308;23;20049;-82
2023/07/02 00:22:44;;;;;;;7.65;5.50;;;;;;;14.38;100.00;92617.56;2524793;23;20342;-87
2023/07/02 00:23:56;;;;;;;8.95;6.18;;;;;;;14.37;100.00;92616.81;2527202;23;20409;-83
2023/07/02 00:25:05;;;;;;;8.32;5.85;;;;;;;14.31;100.00;92611.31;2537541;23;20002;-87
2023/07/02 00:26:18;;;;;;;8.00;5.57;;;;;;;14.33;100.00;92616.22;2545495;23;20009;-83
2023/07/02 00:27:26;;;;;;;9.50;5.70;;;;;;;14.26;100.00;92614.56;2547856;23;20160;-84
2023/07/02 00:28:33;;;;;;;8.73;6.50;;;;;;;14.32;100.00;92618.16;2545223;23;20489;-83
2023/07/02 00:29:39;;;;;;;8.52;6.00;;;;;;;14.34;100.00;92621.13;2534820;23;20009;-83
2023/07/02 00:30:45;;;;;;;11.75;6.43;;;;;;;14.32;100.00;92614.72;2524176;23;20329;-84
2023/07/02 00:32:12;;;;;;;8.10;6.38;;;;;;;14.31;100.00;92621.28;2535179;23;20078;-84
2023/07/02 00:33:21;;;;;;;8.55;6.25;;;;;;;14.29;100.00;92619.06;2538212;23;20103;-83
2023/07/02 00:34:30;;;;;;;9.90;7.07;;;;;;;14.31;100.00;92624.75;2535560;23;20010;-85
2023/07/02 00:35:42;;;;;;;12.40;6.22;;;;;;;14.33;100.00;92621.59;2536546;23;20011;-84
2023/07/02 00:36:55;;;;;;;14.05;6.05;;;;;;;14.31;100.00;92618.59;2544610;23;20013;-83
2023/07/02 00:38:08;;;;;;;7.70;6.03;;;;;;;14.34;100.00;92612.31;2548317;23;20422;-86
2023/07/02 00:39:24;;;;;;;9.35;6.30;;;;;;;14.34;100.00;92618.44;2545720;23;20013;-84
2023/07/02 00:40:33;;;;;;;12.55;6.80;;;;;;;14.37;100.00;92616.81;2536738;23;20006;-84
2023/07/02 00:41:46;;;;;;;10.50;5.78;;;;;;;14.36;100.00;92607.25;2537660;23;20084;-84
2023/07/02 00:42:53;;;;;;;9.63;6.15;;;;;;;14.34;100.00;92605.00;2546253;23;20084;-87
2023/07/02 00:44:03;;;;;;;10.13;6.65;;;;;;;14.33;100.00;92608.16;2534723;23;20378;-84
2023/07/02 00:45:09;;;;;;;9.13;6.22;;;;;;;14.36;100.00;92612.63;2536200;23;20029;-84
2023/07/02 00:46:26;;;;;;;7.60;5.55;;;;;;;14.37;100.00;92606.06;2525436;23;20010;-84
2023/07/02 00:47:37;;;;;;;10.85;6.10;;;;;;;14.35;100.00;92614.59;2538887;23;20060;-86
2023/07/02 00:48:49;;;;;;;9.98;7.00;;;;;;;14.45;100.00;92612.63;2546099;23;20009;-84
2023/07/02 00:50:16;;;;;;;9.00;5.70;;;;;;;14.43;100.00;92609.63;2549143;23;20021;-81
2023/07/02 00:51:33;;;;;;;12.52;6.35;;;;;;;14.33;100.00;92613.53;2538432;23;20012;-84
2023/07/02 00:52:42;;;;;;;9.13;5.88;;;;;;;14.35;100.00;92614.59;2537051;23;20012;-83
2023/07/02 00:53:54;;;;;;;10.23;5.80;;;;;;;14.38;100.00;92614.88;2525289;23;20010;-85
2023/07/02 00:55:01;;;;;;;7.43;5.43;;;;;;;14.38;100.00;92626.38;2536469;23;20380;-80
2023/07/02 00:56:04;;;;;;;8.38;6.28;;;;;;;14.36;100.00;92615.31;2524327;23;20006;-86
2023/07/02 00:57:10;;;;;;;8.73;6.40;;;;;;;14.27;100.00;92621.47;2535147;23;20005;-84
2023/07/02 00:58:20;;;;;;;10.82;6.53;;;;;;;14.31;100.00;92622.06;2547233;23;20005;-84
2023/07/02 00:59:29;;;;;;;10.57;6.80;;;;;;;14.36;100.00;92618.03;2535090;23;20013;-85
2023/07/02 01:00:43;;;;;;;10.63;6.95;;;;;;;14.33;100.00;92619.66;2536568;23;20025;-85
2023/07/02 01:01:53;;;;;;;8.00;6.25;;;;;;;14.29;100.00;92615.63;2527207;23;20014;-81
2023/07/02 01:02:59;;;;;;;8.35;6.28;;;;;;;14.33;100.00;92611.59;2535892;23;20014;-82
2023/07/02 01:04:07;;;;;;;8.80;6.38;;;;;;;14.33;100.00;92611.59;2526184;23;20006;-88
2023/07/02 01:05:35;;;;;;;8.70;6.07;;;;;;;14.34;100.00;92615.03;2542079;23;20036;-82
2023/07/02 01:06:43;;;;;;;9.15;6.20;;;;;;;14.32;100.00;92612.03;2548109;23;20005;-85
2023/07/02 01:07:51;;;;;;;11.15;6.20;;;;;;;14.28;100.00;92612.19;2546849;23;20487;-82
2023/07/02 01:09:00;;;;;;;10.93;6.50;;;;;;;14.27;100.00;92620.72;2547845;23;20041;-82
2023/07/02 01:10:31;;;;;;;7.93;5.80;;;;;;;14.25;100.00;92618.47;2551309;23;20008;-82
2023/07/02 01:11:51;;;;;;;8.57;6.13;;;;;;;14.24;100.00;92614.28;2540121;23;20444;-83
2023/07/02 01:13:14;;;;;;;10.95;5.88;;;;;;;14.25;100.00;92617.72;2530253;23;20029;-80
2023/07/02 01:14:34;;;;;;;9.55;6.38;;;;;;;14.26;100.00;92611.88;2530719;23;20563;-81
2023/07/02 01:15:42;;;;;;;8.60;6.53;;;;;;;14.23;100.00;92612.81;2529694;23;20519;-82
2023/07/02 01:16:52;;;;;;;16.13;7.32;;;;;;;14.20;100.00;92618.34;2537243;23;20042;-83
2023/07/02 01:17:59;;;;;;;11.18;6.53;;;;;;;14.27;100.00;92615.34;2547110;23;20021;-82
2023/07/02 01:19:06;;;;;;;10.38;6.07;;;;;;;14.34;100.00;92617.72;2537182;23;20028;-82
2023/07/02 01:20:11;;;;;;;12.77;6.43;;;;;;;14.31;100.00;92610.53;2535892;23;20002;-81
2023/07/02 01:21:20;;;;;;;12.65;6.25;;;;;;;14.21;100.00;92606.38;2524000;23;20064;-85
2023/07/02 01:22:27;;;;;;;11.43;6.50;;;;;;;14.14;100.00;92609.41;2525430;23;20033;-82
2023/07/02 01:23:28;;;;;;;10.15;6.40;;;;;;;14.04;100.00;92608.63;2523603;23;20006;-82
2023/07/02 01:24:29;;;;;;;10.48;6.57;;;;;;;13.94;100.00;92609.84;2520788;23;20359;-83
2023/07/02 01:25:31;;;;;;;12.80;6.75;;;;;;;13.94;100.00;92607.16;2532895;23;20013;-81
2023/07/02 01:26:33;;;;;;;10.07;6.50;;;;;;;13.93;100.00;92606.41;2532568;23;20012;-85
2023/07/02 01:27:35;;;;;;;8.85;6.10;;;;;;;13.88;100.00;92601.66;2521504;23;20002;-86
2023/07/02 01:28:38;;;;;;;9.00;6.70;;;;;;;13.78;100.00;92611.66;2521197;23;20010;-81
2023/07/02 01:29:39;;;;;;;8.15;6.53;;;;;;;13.73;100.00;92606.88;2533325;23;20637;-82
2023/07/02 01:30:40;;;;;;;10.60;7.45;;;;;;;13.74;100.00;92604.91;2532776;23;20527;-84
2023/07/02 01:31:44;;;;;;;9.73;6.55;;;;;;;13.69;100.00;92603.59;2532566;23;20049;-87
2023/07/02 01:32:45;;;;;;;9.45;6.68;;;;;;;13.63;100.00;92607.31;2534070;23;20057;-85
2023/07/02 01:33:49;;;;;;;11.20;6.70;;;;;;;13.61;100.00;92602.41;2532702;23;20428;-83
2023/07/02 01:34:53;;;;;;;10.57;6.63;;;;;;;13.58;100.00;92593.28;2533372;23;20417;-83
2023/07/02 01:35:54;;;;;;;11.05;6.63;;;;;;;13.52;100.00;92613.13;2533829;23;20341;-88
2023/07/02 01:36:55;;;;;;;9.88;6.97;;;;;;;13.58;100.00;92603.28;2545212;23;20008;-83
2023/07/02 01:37:57;;;;;;;10.13;6.85;;;;;;;13.52;100.00;92599.69;2532015;23;20746;-83
2023/07/02 01:38:57;;;;;;;17.15;6.70;;;;;;;13.51;100.00;92600.88;2533377;23;20049;-84
2023/07/02 01:40:01;;;;;;;10.77;6.57;;;;;;;13.45;100.00;92605.38;2532493;23;20073;-82
2023/07/02 01:41:03;;;;;;;10.50;6.68;;;;;;;13.45;100.00;92606.13;2532699;23;20457;-83
2023/07/02 01:42:11;;;;;;;8.50;5.97;;;;;;;13.53;100.00;92603.88;2534079;23;20487;-83
2023/07/02 01:43:13;;;;;;;9.02;6.57;;;;;;;13.52;100.00;92600.47;2544545;23;20017;-83
2023/07/02 01:44:14;;;;;;;13.73;6.97;;;;;;;13.46;100.00;92607.59;2532236;23;20030;-85
2023/07/02 01:45:18;;;;;;;9.63;6.45;;;;;;;13.52;100.00;92608.53;2520488;23;20638;-84
2023/07/02 01:46:20;;;;;;;9.75;6.53;;;;;;;13.52;100.00;92608.53;2521805;23;20009;-82
2023/07/02 01:47:21;;;;;;;8.93;6.47;;;;;;;13.56;100.00;92614.50;2525327;23;20024;-87
2023/07/02 01:48:22;;;;;;;10.05;6.78;;;;;;;13.48;100.00;92612.53;2544399;23;20183;-84
2023/07/02 01:49:23;;;;;;;10.20;6.55;;;;;;;13.46;100.00;92606.84;2544876;23;20064;-84
2023/07/02 01:50:24;;;;;;;13.15;6.68;;;;;;;13.49;100.00;92604.03;2532051;23;20025;-84
2023/07/02 01:51:25;;;;;;;9.82;6.32;;;;;;;13.46;100.00;92604.16;2531827;23;20002;-87
2023/07/02 01:52:27;;;;;;;8.57;6.90;;;;;;;13.42;100.00;92612.38;2520372;23;20406;-81
2023/07/02 01:53:28;;;;;;;11.05;6.72;;;;;;;13.48;100.00;92602.53;2532596;23;20085;-85
2023/07/02 01:54:31;;;;;;;8.05;6.68;;;;;;;13.48;100.00;92599.13;2544862;23;20432;-87
2023/07/02 01:55:34;;;;;;;11.38;6.82;;;;;;;13.46;100.00;92604.91;2550620;23;20033;-83
2023/07/02 01:56:35;;;;;;;9.30;6.60;;;;;;;13.47;100.00;92603.72;2544443;23;20005;-83
2023/07/02 01:57:36;;;;;;;10.48;6.95;;;;;;;13.43;100.00;92605.81;2543521;23;20012;-80
2023/07/02 01:58:39;;;;;;;9.18;6.20;;;;;;;13.44;100.00;92590.47;2528216;23;20011;-83
2023/07/02 01:59:42;;;;;;;7.97;5.93;;;;;;;13.52;100.00;92603.16;2537492;23;20416;-83
2023/07/02 02:00:43;;;;;;;9.38;5.57;;;;;;;13.48;100.00;92609.84;2534231;23;20010;-83
2023/07/02 02:01:45;;;;;;;9.70;6.47;;;;;;;13.53;100.00;92606.56;2520412;23;20420;-85
2023/07/02 02:02:50;;;;;;;8.25;6.07;;;;;;;13.54;100.00;92608.81;2520202;23;20030;-85
2023/07/02 02:03:55;;;;;;;9.50;6.40;;;;;;;13.53;100.00;92607.31;2534113;23;20010;-84
2023/07/02 02:04:56;;;;;;;8.68;5.75;;;;;;;13.50;100.00;92605.53;2533185;23;20722;-82
2023/07/02 02:05:57;;;;;;;9.73;6.93;;;;;;;13.59;100.00;92608.22;2532698;23;20002;-85
2023/07/02 02:06:59;;;;;;;8.00;6.10;;;;;;;13.54;100.00;92603.44;2520794;23;20678;-83
2023/07/02 02:08:04;;;;;;;10.75;7.07;;;;;;;13.55;100.00;92609.56;2532952;23;20009;-85
2023/07/02 02:09:06;;;;;;;10.57;6.93;;;;;;;13.44;100.00;92607.31;2532730;23;20084;-80
2023/07/02 02:10:09;;;;;;;10.68;6.70;;;;;;;13.50;100.00;92607.47;2533041;23;20200;-86
2023/07/02 02:11:11;;;;;;;15.52;7.13;;;;;;;13.51;100.00;92606.25;2544598;23;20451;-86
2023/07/02 02:12:14;;;;;;;9.35;6.50;;;;;;;13.54;100.00;92611.50;2532464;23;20336;-84
2023/07/02 02:13:15;;;;;;;10.38;6.03;;;;;;;13.58;100.00;92608.66;2521334;23;20010;-83
2023/07/02 02:14:16;;;;;;;11.00;7.28;;;;;;;13.55;100.00;92606.88;2532432;23;20002;-85
2023/07/02 02:15:17;;;;;;;9.65;6.78;;;;;;;13.52;100.00;92611.19;2544698;23;20083;-83
2023/07/02 02:16:19;;;;;;;11.57;6.57;;;;;;;13.55;100.00;92604.91;2544765;23;20020;-82
2023/07/02 02:17:23;;;;;;;7.88;6.53;;;;;;;13.54;100.00;92611.50;2544871;23;20083;-84
2023/07/02 02:18:27;;;;;;;10.40;6.65;;;;;;;13.54;100.00;92614.19;2545512;23;20429;-85
2023/07/02 02:19:30;;;;;;;12.13;6.82;;;;;;;13.54;100.00;92611.50;2544715;23;20014;-85
2023/07/02 06:46:23;;;;;;;55.70;24.27;;;;;;;15.09;100.00;92759.69;2573192;22;20027;-86
2023/07/02 06:47:29;;;;;;;60.20;25.58;;;;;;;15.26;100.00;92768.19;2548489;23;20021;-84
2023/07/02 06:48:34;;;;;;;57.13;24.08;;;;;;;15.16;100.00;92766.72;2537296;23;20008;-84
2023/07/02 06:49:42;;;;;;;57.58;25.63;;;;;;;14.94;100.00;92772.31;2526240;23;20336;-88
2023/07/02 06:50:53;;;;;;;68.50;25.40;;;;;;;15.26;100.00;92770.88;2527901;23;20007;-85
2023/07/02 06:52:09;;;;;;;68.82;26.50;;;;;;;15.10;100.00;92769.25;2531564;23;20018;-84
2023/07/02 06:53:14;;;;;;;63.22;26.10;;;;;;;15.25;100.00;92778.22;2542177;23;20005;-85
2023/07/02 06:54:20;;;;;;;64.57;26.40;;;;;;;15.09;100.00;92765.81;2535198;23;20006;-86
2023/07/02 06:55:25;;;;;;;64.97;26.23;;;;;;;15.04;100.00;92771.06;2536545;23;20044;-85
2023/07/02 06:56:32;;;;;;;65.15;27.65;;;;;;;15.18;100.00;92772.38;2535981;23;20519;-86
2023/07/02 06:57:47;;;;;;;67.82;27.33;;;;;;;15.13;100.00;92775.69;2526577;23;20032;-85
2023/07/02 06:58:54;;;;;;;68.63;26.00;;;;;;;15.25;100.00;92777.47;2529856;23;20017;-84
2023/07/02 07:00:06;;;;;;;69.00;25.85;;;;;;;15.25;100.00;92785.53;2525118;23;20014;-87
2023/07/02 07:01:16;;;;;;;70.93;27.85;;;;;;;15.15;100.00;92768.66;2527155;23;20017;-85
2023/07/02 07:02:24;;;;;;;71.10;28.52;;;;;;;15.11;100.00;92776.16;2537579;23;20009;-84
2023/07/02 07:03:28;;;;;;;74.45;28.42;;;;;;;15.10;100.00;92777.34;2547041;23;20009;-87
2023/07/02 07:04:39;;;;;;;66.72;28.45;;;;;;;15.07;100.00;92773.63;2524182;23;20034;-87
2023/07/02 07:05:47;;;;;;;69.32;28.10;;;;;;;15.21;100.00;92780.31;2535395;23;20350;-85
2023/07/02 07:06:57;;;;;;;69.18;27.55;;;;;;;15.32;100.00;92783.28;2536023;23;20013;-85
2023/07/02 07:08:04;;;;;;;68.90;27.20;;;;;;;15.24;100.00;92784.06;2535364;23;20022;-88
2023/07/02 07:09:13;;;;;;;74.47;28.25;;;;;;;15.23;100.00;92775.22;2534425;23;20089;-87
2023/07/02 07:10:33;;;;;;;64.53;27.15;;;;;;;15.16;100.00;92785.56;2525580;23;20080;-84
2023/07/02 07:11:39;;;;;;;;;;;;;;;15.18;100.00;92783.16;2552694;23;20004;-86
2023/07/02 07:12:46;;;;;;;65.90;26.88;;;;;;;15.23;100.00;92782.53;2535420;23;19905;-88
2023/07/02 07:13:51;;;;;;;78.90;30.27;;;;;;;15.30;100.00;92795.69;2534541;23;20006;-83
2023/07/02 07:15:03;;;;;;;67.90;28.17;;;;;;;15.45;100.00;92785.78;2534357;23;20069;-86
2023/07/02 07:16:12;;;;;;;71.47;28.95;;;;;;;15.27;100.00;92783.13;2548560;23;20001;-85
2023/07/02 07:17:20;;;;;;;75.20;29.02;;;;;;;15.32;100.00;92802.13;2546033;23;20013;-86
2023/07/02 07:18:31;;;;;;;70.38;28.10;;;;;;;15.31;100.00;92791.78;2536317;23;20029;-89
2023/07/02 07:19:41;;;;;;;75.43;28.95;;;;;;;15.20;100.00;92794.22;2536026;23;20085;-85
2023/07/02 07:20:49;;;;;;;78.05;29.65;;;;;;;15.11;100.00;92792.31;2525866;23;20482;-87
2023/07/02 07:21:59;;;;;;;70.72;29.45;;;;;;;14.97;100.00;92791.00;2538900;23;20077;-86
2023/07/02 07:23:10;;;;;;;77.78;30.00;;;;;;;15.00;100.00;92795.47;2559180;23;20001;-86
2023/07/02 07:24:18;;;;;;;73.05;29.98;;;;;;;14.99;100.00;92806.69;2536850;23;20021;-88
2023/07/02 07:25:32;;;;;;;75.15;30.40;;;;;;;14.80;100.00;92801.31;2535867;23;20010;-86
2023/07/02 07:26:48;;;;;;;75.75;29.88;;;;;;;14.86;100.00;92796.81;2525479;23;20006;-87
2023/07/02 07:28:30;;;;;;;76.22;29.05;;;;;;;14.78;100.00;92792.19;2537456;23;20073;-84
2023/07/02 07:29:37;;;;;;;77.30;29.60;;;;;;;14.97;100.00;92796.38;2539449;23;20489;-84
2023/07/02 07:30:43;;;;;;;81.72;29.50;;;;;;;15.14;100.00;92796.03;2537448;23;20178;-85
2023/07/02 07:31:50;;;;;;;74.85;28.42;;;;;;;15.02;100.00;92798.47;2538406;23;20065;-86
2023/07/02 07:32:59;;;;;;;83.55;31.75;;;;;;;15.11;100.00;92795.75;2549105;23;20636;-89
2023/07/02 07:34:03;;;;;;;80.00;31.55;;;;;;;15.02;100.00;92801.16;2547950;23;20037;-84
2023/07/02 07:35:10;;;;;;;72.70;29.77;;;;;;;15.20;100.00;92788.84;2536734;23;20218;-84
2023/07/02 07:36:17;;;;;;;86.72;31.98;;;;;;;15.41;100.00;92811.38;2536367;23;20141;-83
2023/07/02 07:37:25;;;;;;;84.40;32.13;;;;;;;15.13;100.00;92792.59;2525721;23;20477;-86
2023/07/02 07:38:28;;;;;;;80.57;31.00;;;;;;;15.44;100.00;92795.03;2538658;23;20002;-87
2023/07/02 07:39:36;;;;;;;86.60;32.83;;;;;;;15.31;100.00;92791.78;2548727;23;20009;-85
2023/07/02 07:40:45;;;;;;;79.65;32.28;;;;;;;15.33;100.00;92806.31;2548376;23;20314;-86
2023/07/02 07:42:22;;;;;;;82.30;32.33;;;;;;;15.33;100.00;92797.50;2535825;23;20020;-85
2023/07/02 07:43:28;;;;;;;92.13;32.17;;;;;;;15.43;100.00;92796.25;2550604;23;20410;-84
2023/07/02 07:44:36;;;;;;;80.90;33.35;;;;;;;15.41;100.00;92793.28;2536460;23;20002;-86
2023/07/02 07:45:43;;;;;;;77.85;32.22;;;;;;;15.34;100.00;92794.34;2538197;23;20013;-87
2023/07/02 07:46:46;;;;;;;76.57;31.58;;;;;;;15.35;100.00;92798.50;2536724;23;20006;-86
2023/07/02 07:47:50;;;;;;;83.22;32.53;;;;;;;15.41;100.00;92805.97;2536886;23;20065;-85
2023/07/02 07:48:58;;;;;;;87.85;32.88;;;;;;;15.41;100.00;92793.28;2537261;23;20009;-85
2023/07/02 07:50:09;;;;;;;86.35;32.65;;;;;;;15.43;100.00;92800.91;2526445;23;20086;-87
2023/07/02 07:51:19;;;;;;;86.65;33.90;;;;;;;15.30;100.00;92801.81;2540123;23;20006;-88
2023/07/02 07:52:24;;;;;;;89.60;33.90;;;;;;;15.17;100.00;92795.13;2548886;23;20849;-87
2023/07/02 07:53:29;;;;;;;84.38;32.55;;;;;;;15.08;100.00;92798.59;2536366;23;20073;-85
2023/07/02 07:55:13;;;;;;;90.55;34.15;;;;;;;15.06;100.00;92809.06;2555653;23;20001;-85
2023/07/02 07:56:22;;;;;;;98.40;34.58;;;;;;;15.06;100.00;92798.31;2548360;23;20006;-88
2023/07/02 07:58:03;;;;;;;84.10;33.22;;;;;;;15.22;100.00;92802.59;2527691;23;20014;-88
2023/07/02 07:59:29;;;;;;;78.38;32.72;;;;;;;15.00;100.00;92805.47;2523535;23;20010;-87
2023/07/02 08:00:50;;;;;;;87.75;33.70;;;;;;;15.09;100.00;92800.81;2507299;23;20030;-86
2023/07/02 08:02:55;;;;;;;91.10;35.63;;;;;;;15.05;100.00;92808.31;2534860;23;20093;-86
2023/07/02 08:06:13;;;;;;;93.10;32.53;;;;;;;14.70;100.00;92796.38;2522533;23;20075;-88
2023/07/02 08:07:20;;;;;;;89.53;34.88;;;;;;;14.72;100.00;92800.13;2543923;23;20097;-84
2023/07/02 08:08:23;;;;;;;90.85;34.17;;;;;;;14.79;100.00;92797.16;2531663;23;20006;-85
2023/07/02 08:09:31;;;;;;;90.78;33.85;;;;;;;14.94;100.00;92801.91;2528644;23;20002;-88
2023/07/02 08:10:35;;;;;;;98.13;35.83;;;;;;;15.07;100.00;92792.47;2541488;23;19997;-86
2023/07/02 08:11:40;;;;;;;88.50;35.28;;;;;;;15.07;100.00;92797.84;2538688;23;20082;-88
2023/07/02 08:12:48;;;;;;;84.55;34.45;;;;;;;15.14;100.00;92793.34;2527059;23;20010;-85
2023/07/02 08:13:51;;;;;;;89.07;35.53;;;;;;;15.34;100.00;92796.28;2528429;23;20010;-84
2023/07/02 08:14:58;;;;;;;89.18;34.10;;;;;;;15.51;100.00;92789.34;2526261;23;20057;-87
2023/07/02 08:16:13;;;;;;;90.95;34.97;;;;;;;15.55;100.00;92803.41;2528620;23;20070;-88
2023/07/02 08:17:20;;;;;;;88.03;33.45;;;;;;;15.47;100.00;92791.44;2537794;23;20006;-86
2023/07/02 08:18:34;;;;;;;96.95;33.50;;;;;;;15.72;100.00;92790.34;2538889;23;20041;-86
2023/07/02 08:19:58;;;;;;;90.75;35.97;;;;;;;15.76;100.00;92798.22;2532673;23;20068;-86
2023/07/02 08:21:11;;;;;;;89.32;34.75;;;;;;;15.76;100.00;92800.94;2535011;23;20029;-86
2023/07/02 08:22:54;;;;;;;92.40;35.83;;;;;;;15.79;100.00;92806.16;2544169;23;20684;-87
2023/07/02 08:23:58;;;;;;;86.82;34.30;;;;;;;15.90;100.00;92796.84;2535639;23;20052;-85
2023/07/02 08:25:02;;;;;;;86.53;35.10;;;;;;;16.02;100.00;92802.03;2535055;23;20054;-87
2023/07/02 08:26:24;;;;;;;84.22;34.80;;;;;;;16.12;100.00;92794.63;2550342;23;20012;-86
2023/07/02 08:27:41;;;;;;;96.47;35.47;;;;;;;16.06;100.00;92807.97;2545718;23;20739;-87
2023/07/02 08:29:01;;;;;;;89.82;35.20;;;;;;;16.00;100.00;92798.28;2525241;23;20018;-87
2023/07/02 08:30:10;;;;;;;90.93;36.45;;;;;;;16.01;100.00;92797.06;2536053;23;20041;-86
2023/07/02 08:31:17;;;;;;;84.00;34.17;;;;;;;16.27;100.00;92808.91;2523440;23;20698;-89
2023/07/02 08:32:19;;;;;;;95.38;36.85;;;;;;;16.06;100.00;92788.34;2545486;23;20074;-86
2023/07/02 08:33:22;;;;;;;89.40;34.88;;;;;;;16.19;100.00;92807.75;2532256;23;20328;-86
2023/07/02 08:34:23;;;;;;;88.88;34.03;;;;;;;16.09;100.00;92796.28;2532771;23;20034;-87
2023/07/02 08:35:44;;;;;;;80.18;33.25;;;;;;;16.11;100.00;92804.66;2547295;23;20191;-88
2023/07/02 08:37:06;;;;;;;90.60;35.40;;;;;;;16.05;100.00;92795.69;2538935;23;20016;-85
2023/07/02 08:38:08;;;;;;;102.07;36.45;;;;;;;16.23;100.00;92794.84;2539717;23;20025;-88
2023/07/02 08:39:10;;;;;;;88.72;36.75;;;;;;;16.25;100.00;92797.09;2545073;23;20108;-85
2023/07/02 08:40:19;;;;;;;85.03;36.70;;;;;;;16.23;100.00;92789.44;2532034;23;20010;-84
2023/07/02 08:41:23;;;;;;;94.43;36.35;;;;;;;16.36;100.00;92791.91;2523976;23;20044;-87
2023/07/02 08:42:29;;;;;;;91.68;35.25;;;;;;;16.45;100.00;92791.09;2520826;23;20006;-86
2023/07/02 08:43:34;;;;;;;88.47;36.40;;;;;;;16.52;100.00;92788.81;2533245;23;20010;-88
2023/07/02 08:44:38;;;;;;;99.05;39.17;;;;;;;16.41;100.00;92780.47;2534149;23;20061;-87
2023/07/02 08:45:46;;;;;;;88.43;36.10;;;;;;;16.63;100.00;92793.66;2532629;23;20013;-88
2023/07/02 08:46:56;;;;;;;87.53;36.13;;;;;;;16.51;100.00;92784.63;2535662;23;20021;-87
2023/07/02 08:47:59;;;;;;;95.03;36.38;;;;;;;16.50;100.00;92790.47;2534467;23;20084;-87
2023/07/02 08:49:09;;;;;;;87.40;36.78;;;;;;;16.76;100.00;92796.13;2532696;23;20020;-87
2023/07/02 08:50:13;;;;;;;88.03;35.35;;;;;;;16.83;100.00;92793.09;2544340;23;20006;-86
2023/07/02 08:51:16;;;;;;;74.95;33.22;;;;;;;17.06;100.00;92803.06;2533307;23;20001;-86
2023/07/02 08:52:18;;;;;;;83.75;34.65;;;;;;;16.94;100.00;92795.22;2533877;23;20572;-86
2023/07/02 08:53:19;;;;;;;89.63;35.45;;;;;;;16.99;100.00;92802.69;2532319;23;20101;-86
2023/07/02 08:54:23;;;;;;;83.85;33.90;;;;;;;16.87;100.00;92785.56;2520387;23;20026;-86
2023/07/02 08:55:25;;;;;;;82.38;34.92;;;;;;;17.06;100.00;92789.56;2522525;23;20010;-88
2023/07/02 08:56:31;;;;;;;92.80;36.00;;;;;;;17.01;100.00;92784.81;2535039;23;20365;-86
2023/07/02 08:57:40;;;;;;;86.35;35.03;;;;;;;17.16;100.00;92782.09;2535482;23;20014;-86
2023/07/02 08:58:54;;;;;;;83.78;34.30;;;;;;;17.22;100.00;92785.66;2521179;23;20014;-86
2023/07/02 08:59:57;;;;;;;87.25;34.83;;;;;;;17.12;100.00;92786.97;2538857;23;20006;-88
2023/07/02 09:01:20;;;;;;;86.50;34.60;;;;;;;17.09;100.00;92790.59;2534125;23;20113;-89
2023/07/02 09:02:34;;;;;;;80.18;33.08;;;;;;;17.29;100.00;92782.56;2538680;23;20009;-88
2023/07/02 09:03:46;;;;;;;83.22;34.80;;;;;;;17.45;100.00;92788.72;2527812;23;20018;-89
2023/07/02 09:04:47;;;;;;;79.45;33.85;;;;;;;17.54;100.00;92781.25;2525430;23;20003;-87
2023/07/02 09:05:53;;;;;;;79.85;34.35;;;;;;;17.49;100.00;92789.28;2520117;23;19998;-88
2023/07/02 09:07:09;;;;;;;76.00;33.33;;;;;;;17.65;100.00;92788.03;2532532;23;20309;-87
2023/07/02 09:08:11;;;;;;;82.45;35.17;;;;;;;17.90;100.00;92789.41;2527637;23;20013;-87
2023/07/02 09:09:27;;;;;;;80.00;34.47;;;;;;;17.59;100.00;92777.16;2534392;23;20009;-86
2023/07/02 09:10:31;;;;;;;85.75;34.47;;;;;;;17.69;100.00;92785.88;2535741;23;20040;-88
2023/07/02 09:11:51;;;;;;;72.72;32.83;;;;;;;17.67;100.00;92785.63;2523608;23;20561;-85
2023/07/02 09:13:06;;;;;;;77.18;33.13;;;;;;;17.73;100.00;92778.31;2526844;23;20037;-88
2023/07/02 09:14:07;;;;;;;78.30;33.13;;;;;;;17.71;100.00;92786.19;2526791;23;20086;-87
2023/07/02 09:15:19;;;;;;;82.60;32.22;;;;;;;17.89;100.00;92791.38;2520878;23;20014;-88
2023/07/02 09:16:36;;;;;;;72.82;32.53;;;;;;;17.82;100.00;92791.75;2523724;23;20056;-87
2023/07/02 09:17:54;;;;;;;82.85;33.67;;;;;;;17.65;100.00;92782.63;2534585;23;20002;-87
2023/07/02 09:19:17;;;;;;;73.72;31.63;;;;;;;17.56;100.00;92781.53;2524762;23;20014;-87
2023/07/02 09:20:50;;;;;;;77.75;32.25;;;;;;;17.66;100.00;92778.72;2527908;23;20418;-89
2023/07/02 09:22:00;;;;;;;71.38;31.15;;;;;;;17.85;100.00;92796.22;2526384;23;20041;-86
2023/07/02 09:23:01;;;;;;;68.35;30.33;;;;;;;17.73;100.00;92784.47;2514659;23;20087;-83
2023/07/02 09:24:44;;;;;;;67.00;29.58;;;;;;;17.75;100.00;92809.13;2534607;23;20002;-87
2023/07/02 09:26:02;;;;;;;75.70;31.00;;;;;;;17.63;100.00;92802.03;2543063;23;20067;-86
2023/07/02 09:27:21;;;;;;;65.43;29.25;;;;;;;17.49;100.00;92778.47;2525044;23;20089;-87
2023/07/02 09:28:27;;;;;;;69.90;29.70;;;;;;;17.33;100.00;92793.94;2541187;23;20029;-87
2023/07/02 09:29:36;;;;;;;72.03;31.38;;;;;;;17.34;100.00;92792.00;2544600;23;20006;-89
2023/07/02 09:30:59;;;;;;;78.75;32.67;;;;;;;17.67;100.00;92794.47;2544387;23;20447;-87
2023/07/02 09:32:12;;;;;;;76.15;30.48;;;;;;;17.56;100.00;92800.47;2535080;23;20017;-87
2023/07/02 09:33:24;;;;;;;69.43;31.70;;;;;;;17.85;100.00;92796.97;2533827;23;20013;-86
2023/07/02 09:34:52;;;;;;;68.35;28.92;;;;;;;18.07;100.00;92791.13;2533614;23;20069;-87
2023/07/02 09:36:09;;;;;;;66.13;29.35;;;;;;;18.08;100.00;92803.44;2542930;23;20036;-87
2023/07/02 09:37:16;;;;;;;69.65;29.40;;;;;;;18.04;100.00;92804.84;2532463;23;20010;-88
2023/07/02 09:38:22;;;;;;;68.15;28.80;;;;;;;18.10;100.00;92800.28;2534100;23;20014;-88
2023/07/02 09:39:32;;;;;;;66.28;28.95;;;;;;;17.80;100.00;92803.06;2530808;23;20352;-87
2023/07/02 09:40:35;;;;;;;70.78;29.50;;;;;;;17.78;100.00;92802.78;2522844;23;20010;-89
2023/07/02 09:41:42;;;;;;;73.90;29.45;;;;;;;17.79;100.00;92798.13;2519995;23;20014;-88
2023/07/02 09:42:52;;;;;;;65.15;29.48;;;;;;;17.92;100.00;92787.75;2520875;23;20014;-86
2023/07/02 09:43:54;;;;;;;;;;;;;;;17.93;100.00;92796.59;2536223;23;20729;-89
2023/07/02 09:44:59;;;;;;;65.68;28.95;;;;;;;17.93;100.00;92796.59;2533652;23;19913;-85
2023/07/02 09:46:00;;;;;;;61.45;28.60;;;;;;;17.92;100.00;92806.66;2534520;23;20022;-85